Time;durP1;ratioP1;P1;durP2;ratioP2;P2;SDS_P1;SDS_P2;PMS_P1;PMS_P2;Temp;Humidity;BMP_temperature;BMP_pressure;BME280_temperature;BME280_humidity;BME280_pressure;Samples;Min_cycle;Max_cycle;Signal;HPM_P1;HPM_P2
2023/11/08 00:01:57;;;;;;;115.40;63.70;;;;;;;5.47;100.00;97743.13;108542;1262;58324;-81
2023/11/08 00:04:23;;;;;;;115.10;66.20;;;;;;;5.46;100.00;97740.34;108588;1262;58202;-81
2023/11/08 00:06:50;;;;;;;124.90;65.80;;;;;;;5.47;100.00;97744.04;108554;1261;58559;-81
2023/11/08 00:09:17;;;;;;;119.00;64.60;;;;;;;5.48;100.00;97739.52;108509;1262;73611;-81
2023/11/08 00:11:43;;;;;;;117.80;62.90;;;;;;;5.51;100.00;97738.20;108577;1262;58970;-81
2023/11/08 00:14:10;;;;;;;109.50;59.00;;;;;;;5.53;100.00;97740.48;108551;1263;71865;-80
2023/11/08 00:16:37;;;;;;;117.00;64.20;;;;;;;5.53;100.00;97742.25;108552;1262;58816;-81
2023/11/08 00:19:03;;;;;;;105.30;57.70;;;;;;;5.55;100.00;97736.99;108588;1262;59356;-81
2023/11/08 00:21:30;;;;;;;96.30;53.50;;;;;;;5.57;100.00;97737.84;108577;1262;72259;-81
2023/11/08 00:23:57;;;;;;;99.70;55.40;;;;;;;5.57;100.00;97739.09;108529;1262;68916;-81
2023/11/08 00:26:24;;;;;;;101.20;57.20;;;;;;;5.57;100.00;97735.16;108551;1262;71603;-81
2023/11/08 00:28:50;;;;;;;107.00;55.70;;;;;;;5.59;100.00;97739.73;108558;1266;58903;-81
2023/11/08 00:31:17;;;;;;;117.80;56.40;;;;;;;5.62;100.00;97745.40;108582;1262;58442;-81
2023/11/08 00:33:43;;;;;;;95.00;52.70;;;;;;;5.64;100.00;97743.45;108569;1262;58878;-82
2023/11/08 00:36:09;;;;;;;130.60;67.30;;;;;;;5.67;100.00;97745.94;108575;1262;58939;-81
2023/11/08 00:38:36;;;;;;;114.90;62.70;;;;;;;5.69;100.00;97740.95;108541;1263;58659;-80
2023/11/08 00:41:03;;;;;;;113.30;62.50;;;;;;;5.72;100.00;97739.95;108506;1262;58329;-81
2023/11/08 00:43:30;;;;;;;106.70;60.00;;;;;;;5.76;100.00;97735.38;108508;1262;59393;-81
2023/11/08 00:46:02;;;;;;;101.50;56.00;;;;;;;5.79;100.00;97725.92;108579;1262;58884;-81
2023/11/08 00:48:28;;;;;;;105.30;58.80;;;;;;;5.76;100.00;97721.61;108533;1263;70109;-81
2023/11/08 00:50:55;;;;;;;101.20;58.00;;;;;;;5.75;100.00;97717.24;108529;1264;72371;-81
2023/11/08 00:53:21;;;;;;;101.50;54.50;;;;;;;5.75;100.00;97717.36;108679;1259;58851;-81
2023/11/08 00:55:48;;;;;;;98.60;50.00;;;;;;;5.73;100.00;97714.39;108761;1260;60303;-81
2023/11/08 00:58:14;;;;;;;92.60;51.00;;;;;;;5.69;100.00;97712.14;108792;1259;58897;-81
2023/11/08 01:00:41;;;;;;;104.40;52.10;;;;;;;5.65;100.00;97714.91;108744;1262;58941;-80
2023/11/08 01:03:08;;;;;;;93.20;52.00;;;;;;;5.65;100.00;97715.92;108756;1259;72120;-80
2023/11/08 01:05:35;;;;;;;94.90;50.50;;;;;;;5.65;100.00;97712.02;108779;1258;58782;-81
2023/11/08 01:08:02;;;;;;;83.40;47.50;;;;;;;5.62;100.00;97712.98;108777;1259;59907;-81
2023/11/08 01:10:29;;;;;;;90.80;47.80;;;;;;;5.62;100.00;97707.13;108776;1259;72248;-81
2023/11/08 01:12:55;;;;;;;85.20;49.00;;;;;;;5.64;100.00;97707.20;108745;1259;58287;-81
2023/11/08 01:15:22;;;;;;;85.30;46.40;;;;;;;5.64;100.00;97704.47;108758;1258;58919;-80
2023/11/08 01:17:48;;;;;;;95.90;54.60;;;;;;;5.64;100.00;97700.82;108757;1261;58964;-80
2023/11/08 01:20:14;;;;;;;97.70;56.20;;;;;;;5.65;100.00;97692.32;108764;1258;58835;-82
2023/11/08 01:22:41;;;;;;;102.80;53.00;;;;;;;5.62;100.00;97685.09;108777;1261;58656;-80
2023/11/08 01:25:09;;;;;;;95.40;52.60;;;;;;;5.60;100.00;97681.63;108773;1259;71793;-81
2023/11/08 01:27:35;;;;;;;95.00;52.00;;;;;;;5.58;100.00;97684.73;108755;1259;73574;-80
2023/11/08 01:30:04;;;;;;;99.30;52.50;;;;;;;5.52;100.00;97683.88;108757;1258;58339;-82
2023/11/08 01:32:33;;;;;;;86.20;46.20;;;;;;;5.51;100.00;97683.80;108741;1258;59753;-81
2023/11/08 01:35:01;;;;;;;93.40;52.40;;;;;;;5.47;100.00;97682.91;108769;1258;72727;-81
2023/11/08 01:37:27;;;;;;;96.50;52.80;;;;;;;5.49;100.00;97684.27;108741;1263;70777;-81
2023/11/08 01:39:54;;;;;;;93.50;51.30;;;;;;;5.51;100.00;97683.70;108765;1260;58237;-80
2023/11/08 01:42:20;;;;;;;92.40;52.10;;;;;;;5.54;100.00;97679.52;108741;1261;58372;-81
2023/11/08 01:44:47;;;;;;;89.10;49.30;;;;;;;5.54;100.00;97677.80;108715;1260;58941;-81
2023/11/08 01:47:14;;;;;;;83.50;46.30;;;;;;;5.53;100.00;97669.09;108773;1261;58290;-80
2023/11/08 01:49:40;;;;;;;120.30;61.70;;;;;;;5.58;100.00;97671.89;108871;1257;70925;-81
2023/11/08 01:52:10;;;;;;;110.50;56.50;;;;;;;5.63;100.00;97674.34;108828;1258;58203;-80
2023/11/08 01:54:39;;;;;;;87.10;48.60;;;;;;;5.66;100.00;97674.21;108845;1257;58660;-80
2023/11/08 01:57:06;;;;;;;82.60;46.90;;;;;;;5.66;100.00;97670.88;108815;1260;60213;-81
2023/11/08 01:59:33;;;;;;;86.50;51.80;;;;;;;5.68;100.00;97673.15;108708;1261;58479;-80
2023/11/08 02:01:59;;;;;;;78.80;44.60;;;;;;;5.67;100.00;97673.20;108723;1258;71896;-81
2023/11/08 02:04:29;;;;;;;85.80;48.50;;;;;;;5.65;100.00;97671.84;108773;1260;58266;-80
2023/11/08 02:06:55;;;;;;;92.30;48.30;;;;;;;5.65;100.00;97678.63;108675;1260;58863;-80
2023/11/08 02:09:21;;;;;;;81.40;46.10;;;;;;;5.64;100.00;97674.77;108736;1261;58235;-81
2023/11/08 02:11:48;;;;;;;88.80;50.20;;;;;;;5.69;100.00;97680.30;108679;1260;58385;-81
2023/11/08 02:14:14;;;;;;;81.60;41.50;;;;;;;5.74;100.00;97677.08;108641;1259;58308;-81
2023/11/08 02:16:41;;;;;;;85.90;43.50;;;;;;;5.79;100.00;97682.64;108721;1260;58227;-80
2023/11/08 02:19:08;;;;;;;85.30;46.70;;;;;;;5.81;100.00;97681.05;108689;1261;58643;-80
2023/11/08 02:21:34;;;;;;;85.30;48.20;;;;;;;5.83;100.00;97681.19;108750;1259;58198;-80
2023/11/08 02:24:16;;;;;;;73.00;41.10;;;;;;;5.84;100.00;97683.98;108732;1263;58430;-80
2023/11/08 02:26:43;;;;;;;70.70;41.50;;;;;;;5.84;100.00;97686.19;108706;1259;71284;-80
2023/11/08 02:29:09;;;;;;;74.20;44.10;;;;;;;5.88;100.00;97683.09;108692;1260;71506;-81
2023/11/08 02:31:36;;;;;;;76.50;44.20;;;;;;;5.88;100.00;97681.63;108743;1260;58972;-80
2023/11/08 02:34:02;;;;;;;83.70;46.40;;;;;;;5.87;100.00;97681.90;108753;1260;58949;-80
2023/11/08 02:36:29;;;;;;;79.30;43.40;;;;;;;5.87;100.00;97680.39;108705;1262;72539;-80
2023/11/08 02:38:55;;;;;;;75.70;45.90;;;;;;;5.82;100.00;97680.30;108717;1260;59050;-80
2023/11/08 02:41:22;;;;;;;123.90;71.10;;;;;;;5.83;100.00;97683.71;108709;1259;58298;-80
2023/11/08 02:43:48;;;;;;;78.50;45.90;;;;;;;5.85;100.00;97680.38;108678;1259;58549;-80
2023/11/08 02:46:15;;;;;;;77.10;42.70;;;;;;;5.82;100.00;97685.58;108753;1258;58829;-80
2023/11/08 02:48:42;;;;;;;79.20;41.90;;;;;;;5.78;100.00;97688.33;108825;1257;73634;-81
2023/11/08 02:51:09;;;;;;;64.00;39.90;;;;;;;5.78;100.00;97686.02;108855;1257;69434;-81
2023/11/08 02:53:36;;;;;;;74.10;37.20;;;;;;;5.77;100.00;97686.77;108844;1258;72445;-80
2023/11/08 02:56:02;;;;;;;76.60;40.80;;;;;;;5.77;100.00;97683.34;108862;1258;58834;-80
2023/11/08 02:58:30;;;;;;;71.10;37.50;;;;;;;5.78;100.00;97687.27;108807;1259;58237;-80
2023/11/08 03:00:56;;;;;;;68.00;38.20;;;;;;;5.78;100.00;97687.73;108763;1260;73442;-80
2023/11/08 03:03:23;;;;;;;61.30;34.90;;;;;;;5.79;100.00;97681.99;108757;1259;71005;-80
2023/11/08 03:05:50;;;;;;;57.00;33.40;;;;;;;5.83;100.00;97686.77;108777;1260;71386;-81
2023/11/08 03:08:17;;;;;;;65.00;36.40;;;;;;;5.82;100.00;97684.02;108813;1260;59016;-80
2023/11/08 03:10:43;;;;;;;71.30;38.50;;;;;;;5.82;100.00;97684.02;108779;1260;58559;-80
2023/11/08 03:13:10;;;;;;;78.10;43.20;;;;;;;5.85;100.00;97686.84;108800;1260;58289;-80
2023/11/08 03:15:36;;;;;;;76.50;45.40;;;;;;;5.82;100.00;97684.19;108781;1260;58963;-80
2023/11/08 03:18:03;;;;;;;78.00;42.70;;;;;;;5.82;100.00;97688.88;108745;1259;58247;-80
2023/11/08 03:20:30;;;;;;;72.60;40.60;;;;;;;5.81;100.00;97688.03;108778;1259;58307;-80
2023/11/08 03:22:57;;;;;;;74.00;42.40;;;;;;;5.78;100.00;97687.27;108716;1261;59947;-80
2023/11/08 03:25:23;;;;;;;67.50;41.50;;;;;;;5.79;100.00;97686.24;108713;1259;73203;-80
2023/11/08 03:27:49;;;;;;;64.50;38.30;;;;;;;5.79;100.00;97683.83;108811;1260;58191;-80
2023/11/08 03:30:16;;;;;;;72.20;39.10;;;;;;;5.80;100.00;97687.06;108749;1263;58296;-80
2023/11/08 03:32:42;;;;;;;83.10;46.20;;;;;;;5.81;100.00;97692.04;108616;1260;58126;-80
2023/11/08 03:35:09;;;;;;;153.00;84.90;;;;;;;5.84;100.00;97693.52;108793;1258;58208;-81
2023/11/08 03:37:36;;;;;;;84.30;45.80;;;;;;;5.88;100.00;97695.73;108785;1259;72541;-81
2023/11/08 03:40:05;;;;;;;73.50;42.10;;;;;;;5.89;100.00;97693.64;108814;1260;70750;-81
2023/11/08 03:42:34;;;;;;;76.90;44.20;;;;;;;5.88;100.00;97690.08;108790;1261;71928;-81
2023/11/08 03:45:04;;;;;;;113.00;58.40;;;;;;;5.91;100.00;97685.26;108750;1258;58795;-81
2023/11/08 03:47:30;;;;;;;99.70;47.50;;;;;;;5.89;100.00;97684.25;108816;1257;59026;-81
2023/11/08 03:49:57;;;;;;;92.40;45.90;;;;;;;5.88;100.00;97688.69;108799;1257;58920;-80
2023/11/08 03:52:23;;;;;;;75.10;42.80;;;;;;;5.91;100.00;97690.79;108773;1257;70869;-80
2023/11/08 03:54:50;;;;;;;77.80;44.70;;;;;;;5.94;100.00;97692.59;108789;1257;58969;-81
2023/11/08 03:57:18;;;;;;;75.80;44.30;;;;;;;5.99;100.00;97689.02;108708;1260;58198;-80
2023/11/08 03:59:45;;;;;;;81.00;44.50;;;;;;;5.99;100.00;97694.25;108791;1260;58524;-80
2023/11/08 04:02:11;;;;;;;67.40;39.10;;;;;;;6.00;100.00;97695.77;108819;1259;71608;-80
2023/11/08 04:04:38;;;;;;;93.90;53.80;;;;;;;5.99;100.00;97701.06;109140;1254;58786;-80
2023/11/08 04:07:04;;;;;;;87.00;47.70;;;;;;;5.98;100.00;97701.00;109110;1253;58223;-80
2023/11/08 04:09:31;;;;;;;79.40;47.00;;;;;;;5.96;100.00;97701.63;109164;1253;58261;-80
2023/11/08 04:11:57;;;;;;;83.30;47.50;;;;;;;5.94;100.00;97698.12;109025;1254;58669;-80
2023/11/08 04:14:24;;;;;;;76.90;44.20;;;;;;;5.92;100.00;97697.91;109184;1253;59153;-80
2023/11/08 04:16:51;;;;;;;80.50;43.20;;;;;;;5.92;100.00;97695.96;109152;1254;70569;-81
2023/11/08 04:19:17;;;;;;;78.40;43.50;;;;;;;5.93;100.00;97700.38;109165;1253;72738;-80
2023/11/08 04:21:44;;;;;;;71.90;42.40;;;;;;;5.91;100.00;97702.34;109037;1253;59901;-81
2023/11/08 04:24:10;;;;;;;68.00;42.70;;;;;;;5.91;100.00;97705.38;109182;1253;59536;-80
2023/11/08 04:26:37;;;;;;;69.00;41.50;;;;;;;5.91;100.00;97705.48;109160;1253;73061;-80
2023/11/08 04:29:04;;;;;;;69.90;39.60;;;;;;;5.92;100.00;97707.90;109066;1254;69609;-80
2023/11/08 04:31:30;;;;;;;71.20;40.70;;;;;;;5.93;100.00;97704.68;109157;1254;58251;-80
2023/11/08 04:33:57;;;;;;;71.00;42.00;;;;;;;5.94;100.00;97704.09;109107;1257;58925;-80
2023/11/08 04:36:26;;;;;;;70.90;40.80;;;;;;;5.95;100.00;97709.27;109156;1253;59714;-82
2023/11/08 04:38:53;;;;;;;74.40;41.40;;;;;;;5.91;100.00;97711.23;109187;1254;72456;-80
2023/11/08 04:41:20;;;;;;;76.70;43.80;;;;;;;5.91;100.00;97710.27;109145;1254;69881;-80
2023/11/08 04:43:47;;;;;;;73.10;39.90;;;;;;;5.92;100.00;97705.05;109053;1253;72961;-80
2023/11/08 04:46:14;;;;;;;123.60;72.00;;;;;;;5.93;100.00;97704.58;109142;1253;58194;-80
2023/11/08 04:48:40;;;;;;;97.70;56.60;;;;;;;5.94;100.00;97706.14;109325;1254;58856;-80
2023/11/08 04:51:07;;;;;;;79.20;46.10;;;;;;;5.90;100.00;97710.46;109177;1254;74114;-80
2023/11/08 04:53:33;;;;;;;69.60;41.40;;;;;;;5.87;100.00;97710.35;109254;1254;58365;-80
2023/11/08 04:56:00;;;;;;;66.10;37.80;;;;;;;5.87;100.00;97713.74;109234;1254;58642;-80
2023/11/08 04:58:27;;;;;;;69.00;39.50;;;;;;;5.88;100.00;97717.45;109139;1253;58628;-80
2023/11/08 05:00:54;;;;;;;72.20;40.40;;;;;;;5.90;100.00;97720.73;109179;1253;58475;-80
2023/11/08 05:03:20;;;;;;;94.50;49.70;;;;;;;5.92;100.00;97716.09;109162;1253;58249;-80
2023/11/08 05:05:46;;;;;;;82.00;43.30;;;;;;;5.91;100.00;97720.16;109151;1254;58971;-80
2023/11/08 05:08:13;;;;;;;154.30;76.00;;;;;;;5.91;100.00;97719.30;109151;1252;58399;-80
2023/11/08 05:10:40;;;;;;;132.00;69.90;;;;;;;5.92;100.00;97723.98;109199;1253;58218;-81
2023/11/08 05:13:07;;;;;;;109.10;57.80;;;;;;;5.91;100.00;97726.14;109146;1253;60550;-80
2023/11/08 05:15:33;;;;;;;82.60;44.60;;;;;;;5.93;100.00;97729.42;109085;1253;72237;-81
2023/11/08 05:18:00;;;;;;;72.30;42.10;;;;;;;5.95;100.00;97731.27;109125;1253;69493;-80
2023/11/08 05:20:27;;;;;;;80.70;46.00;;;;;;;5.92;100.00;97729.85;109141;1253;71804;-80
2023/11/08 05:22:56;;;;;;;79.30;44.80;;;;;;;5.91;100.00;97732.10;109065;1253;58238;-80
2023/11/08 05:25:22;;;;;;;72.10;44.60;;;;;;;5.90;100.00;97735.38;109147;1253;59260;-80
2023/11/08 05:27:50;;;;;;;72.10;41.60;;;;;;;5.89;100.00;97736.79;109151;1253;58256;-80
2023/11/08 05:30:16;;;;;;;70.30;41.50;;;;;;;5.89;100.00;97741.34;109189;1253;72381;-80
2023/11/08 05:32:44;;;;;;;75.10;42.10;;;;;;;5.91;100.00;97746.23;109130;1253;58331;-80
2023/11/08 05:35:13;;;;;;;78.00;43.50;;;;;;;5.93;100.00;97747.71;109146;1252;58732;-81
2023/11/08 05:37:43;;;;;;;70.20;40.80;;;;;;;5.94;100.00;97747.50;109084;1253;58717;-80
2023/11/08 05:40:12;;;;;;;68.20;39.80;;;;;;;5.97;100.00;97752.41;109116;1253;72943;-80
2023/11/08 05:42:39;;;;;;;66.10;39.60;;;;;;;5.98;100.00;97752.05;109128;1254;69543;-80
2023/11/08 05:45:07;;;;;;;62.30;36.60;;;;;;;5.99;100.00;97755.46;109164;1253;72907;-80
2023/11/08 05:47:37;;;;;;;60.70;36.30;;;;;;;6.00;100.00;97757.84;109210;1254;58674;-80
2023/11/08 05:50:06;;;;;;;55.30;34.10;;;;;;;6.02;100.00;97760.91;109163;1253;59863;-81
2023/11/08 05:52:32;;;;;;;;;;;;;;;6.05;100.00;97758.17;109199;1254;72985;-80
2023/11/08 05:54:59;;;;;;;60.60;34.70;;;;;;;6.08;100.00;97760.42;109225;1253;70687;-80
2023/11/08 05:57:26;;;;;;;69.80;41.70;;;;;;;6.12;100.00;97764.71;109076;1253;71796;-80
2023/11/08 05:59:53;;;;;;;67.00;38.40;;;;;;;6.15;100.00;97764.04;109129;1253;58987;-80
2023/11/08 06:02:20;;;;;;;71.50;42.50;;;;;;;6.18;100.00;97769.38;109240;1252;58484;-80
2023/11/08 06:04:48;;;;;;;66.30;41.90;;;;;;;6.17;100.00;97770.23;109188;1253;73895;-80
2023/11/08 06:07:15;;;;;;;67.90;39.60;;;;;;;6.16;100.00;97774.05;109135;1254;69906;-80
2023/11/08 06:09:43;;;;;;;72.20;42.80;;;;;;;6.17;100.00;97776.70;109233;1253;72746;-80
2023/11/08 06:12:09;;;;;;;70.50;41.10;;;;;;;6.19;100.00;97780.15;109245;1253;58974;-80
2023/11/08 06:14:36;;;;;;;62.10;39.20;;;;;;;6.18;100.00;97782.30;109280;1253;60231;-80
2023/11/08 06:17:02;;;;;;;110.40;63.30;;;;;;;6.18;100.00;97789.19;109217;1253;58443;-80
2023/11/08 06:19:29;;;;;;;76.30;47.20;;;;;;;6.21;100.00;97789.95;109066;1253;58277;-81
2023/11/08 06:21:55;;;;;;;65.20;40.40;;;;;;;6.23;100.00;97787.34;109133;1253;58506;-80
2023/11/08 06:24:22;;;;;;;63.20;38.60;;;;;;;6.26;100.00;97793.83;109110;1253;58936;-80
2023/11/08 06:26:48;;;;;;;56.60;33.00;;;;;;;6.27;100.00;97794.31;109141;1253;58139;-80
2023/11/08 06:29:15;;;;;;;62.90;36.40;;;;;;;6.29;100.00;97800.30;109170;1253;58243;-81
2023/11/08 06:31:41;;;;;;;87.50;48.80;;;;;;;6.31;100.00;97802.46;109021;1253;159713;-80
2023/11/08 06:34:08;;;;;;;69.10;37.60;;;;;;;6.33;100.00;97802.61;109122;1252;59045;-80
2023/11/08 06:36:34;;;;;;;178.00;101.80;;;;;;;6.37;100.00;97802.41;109274;1253;58181;-81
2023/11/08 06:39:01;;;;;;;80.00;51.90;;;;;;;6.38;100.00;97805.91;109310;1252;58637;-81
2023/11/08 06:41:27;;;;;;;60.10;35.90;;;;;;;6.38;100.00;97808.11;109313;1252;58345;-80
2023/11/08 06:43:54;;;;;;;57.40;34.70;;;;;;;6.40;100.00;97815.34;109282;1253;58518;-80
2023/11/08 06:46:20;;;;;;;65.70;37.40;;;;;;;6.38;100.00;97821.03;109285;1253;59043;-80
2023/11/08 06:48:47;;;;;;;64.90;37.90;;;;;;;6.38;100.00;97821.36;109130;1253;58473;-81
2023/11/08 06:51:13;;;;;;;60.60;35.00;;;;;;;6.39;100.00;97823.73;109148;1253;58440;-80
2023/11/08 06:53:40;;;;;;;58.10;36.40;;;;;;;6.40;100.00;97822.23;109142;1253;58459;-80
2023/11/08 06:56:07;;;;;;;61.40;39.10;;;;;;;6.41;100.00;97824.58;109094;1253;58273;-80
2023/11/08 06:58:33;;;;;;;67.60;39.40;;;;;;;6.43;100.00;97828.95;109136;1253;70095;-80
2023/11/08 07:01:05;;;;;;;73.40;42.20;;;;;;;6.41;100.00;97827.79;109102;1253;58860;-80
2023/11/08 07:03:31;;;;;;;62.90;38.60;;;;;;;6.41;100.00;97834.64;108929;1253;59461;-81
2023/11/08 07:05:58;;;;;;;59.00;37.80;;;;;;;6.42;100.00;97837.77;109083;1253;58378;-80
2023/11/08 07:08:24;;;;;;;60.90;36.00;;;;;;;6.44;100.00;97841.55;109143;1253;71089;-81
2023/11/08 07:10:51;;;;;;;74.80;44.00;;;;;;;6.49;100.00;97841.80;109118;1253;58594;-80
2023/11/08 07:13:17;;;;;;;73.00;42.40;;;;;;;6.50;100.00;97843.97;109096;1253;58805;-81
2023/11/08 07:15:44;;;;;;;76.20;42.80;;;;;;;6.50;100.00;97846.86;109177;1252;58559;-80
2023/11/08 07:18:14;;;;;;;70.60;42.60;;;;;;;6.49;100.00;97846.85;109149;1253;73491;-81
2023/11/08 07:20:42;;;;;;;67.60;41.40;;;;;;;6.48;100.00;97849.60;109118;1252;69621;-80
2023/11/08 07:23:09;;;;;;;71.30;41.70;;;;;;;6.46;100.00;97848.50;109152;1253;72350;-80
2023/11/08 07:25:36;;;;;;;69.10;40.10;;;;;;;6.49;100.00;97848.90;109277;1252;58497;-81
2023/11/08 07:28:05;;;;;;;61.60;41.60;;;;;;;6.49;100.00;97847.56;109288;1252;60590;-81
2023/11/08 07:30:31;;;;;;;75.30;43.70;;;;;;;6.49;100.00;97850.41;109092;1253;73784;-80
2023/11/08 07:33:00;;;;;;;113.90;62.70;;;;;;;6.51;100.00;97850.17;109119;1253;58336;-81
2023/11/08 07:35:26;;;;;;;88.00;48.80;;;;;;;6.55;100.00;97854.71;109139;1253;72840;-80
2023/11/08 07:37:54;;;;;;;92.30;58.90;;;;;;;6.54;100.00;97852.83;109061;1253;58210;-80
2023/11/08 07:40:21;;;;;;;62.50;41.20;;;;;;;6.59;100.00;97855.18;109037;1254;59899;-81
2023/11/08 07:42:48;;;;;;;71.30;45.60;;;;;;;6.64;100.00;97854.19;109073;1252;71561;-81
2023/11/08 07:45:15;;;;;;;69.60;43.80;;;;;;;6.71;100.00;97853.65;109079;1252;58820;-81
2023/11/08 07:47:41;;;;;;;70.40;43.20;;;;;;;6.75;100.00;97859.98;109207;1252;59112;-81
2023/11/08 07:50:08;;;;;;;67.00;44.40;;;;;;;6.79;100.00;97860.17;109083;1253;58352;-81
2023/11/08 07:52:35;;;;;;;71.70;44.10;;;;;;;6.83;100.00;97864.17;109047;1253;59984;-80
2023/11/08 07:55:01;;;;;;;70.30;44.90;;;;;;;6.85;100.00;97870.02;109210;1253;58792;-81
2023/11/08 07:57:28;;;;;;;64.30;41.20;;;;;;;6.89;100.00;97871.22;109076;1253;58924;-81
2023/11/08 07:59:54;;;;;;;73.80;46.50;;;;;;;6.93;100.00;97872.55;109032;1253;58721;-81
2023/11/08 08:02:21;;;;;;;72.70;47.60;;;;;;;6.98;100.00;97872.52;109045;1253;58962;-81
2023/11/08 08:04:48;;;;;;;64.20;39.10;;;;;;;7.02;100.00;97867.86;109201;1253;58844;-81
2023/11/08 08:07:15;;;;;;;106.10;59.70;;;;;;;7.02;100.00;97871.86;109098;1253;73033;-80
2023/11/08 08:09:41;;;;;;;100.90;60.10;;;;;;;7.08;100.00;97869.77;109156;1253;71020;-80
2023/11/08 08:12:08;;;;;;;98.50;61.60;;;;;;;7.16;100.00;97875.70;109069;1253;58753;-80
2023/11/08 08:14:35;;;;;;;64.20;42.00;;;;;;;7.24;100.00;97879.29;109211;1253;58290;-80
2023/11/08 08:17:04;;;;;;;36.30;25.10;;;;;;;7.32;100.00;97881.40;108948;1253;59535;-81
2023/11/08 08:19:31;;;;;;;17.60;11.60;;;;;;;7.40;100.00;97890.88;109107;1252;73806;-80
2023/11/08 08:22:00;;;;;;;9.60;8.00;;;;;;;7.44;100.00;97891.91;109104;1253;58327;-80
2023/11/08 08:24:28;;;;;;;11.60;9.00;;;;;;;7.50;100.00;97892.44;109133;1252;71713;-80
2023/11/08 08:26:56;;;;;;;9.40;6.30;;;;;;;7.58;100.00;97886.70;109222;1252;58922;-80
2023/11/08 08:29:24;;;;;;;10.00;4.70;;;;;;;7.68;100.00;97890.73;109165;1252;59149;-80
2023/11/08 08:31:50;;;;;;;4.90;4.40;;;;;;;7.76;100.00;97894.27;109039;1253;73159;-80
2023/11/08 08:34:17;;;;;;;4.20;3.40;;;;;;;7.81;100.00;97895.26;109122;1253;58954;-80
2023/11/08 08:36:43;;;;;;;4.20;3.40;;;;;;;7.87;100.00;97897.55;109094;1256;58360;-81
2023/11/08 08:39:10;;;;;;;4.40;3.90;;;;;;;7.94;100.00;97899.66;109007;1253;58586;-81
2023/11/08 08:41:36;;;;;;;5.40;3.90;;;;;;;8.02;100.00;97902.39;109082;1252;60340;-80
2023/11/08 08:44:03;;;;;;;5.50;3.10;;;;;;;8.07;100.00;97903.37;109194;1253;58920;-81
2023/11/08 08:46:30;;;;;;;7.60;3.90;;;;;;;8.08;100.00;97903.42;109047;1252;69814;-81
2023/11/08 08:48:56;;;;;;;4.00;3.10;;;;;;;8.09;100.00;97905.20;109096;1253;58280;-81
2023/11/08 08:51:23;;;;;;;5.00;3.00;;;;;;;8.12;100.00;97908.20;109087;1253;58357;-80
2023/11/08 08:53:49;;;;;;;3.50;2.80;;;;;;;8.12;100.00;97905.39;109127;1253;58365;-81
2023/11/08 08:56:16;;;;;;;7.20;5.40;;;;;;;8.14;100.00;97909.44;109061;1253;58369;-81
2023/11/08 08:58:42;;;;;;;7.80;4.30;;;;;;;8.15;100.00;97912.63;109109;1253;58562;-79
2023/11/08 09:01:12;;;;;;;7.40;4.50;;;;;;;8.18;100.00;97909.39;109054;1253;58276;-81
2023/11/08 09:03:38;;;;;;;6.00;4.50;;;;;;;8.23;100.00;97911.14;109000;1253;58573;-81
2023/11/08 09:06:05;;;;;;;4.40;3.20;;;;;;;8.27;100.00;97910.38;109099;1253;59024;-81
2023/11/08 09:08:31;;;;;;;3.40;2.90;;;;;;;8.32;100.00;97914.23;109082;1253;72219;-81
2023/11/08 09:10:58;;;;;;;3.10;2.50;;;;;;;8.41;100.00;97912.00;109103;1253;59215;-80
2023/11/08 09:13:24;;;;;;;6.70;3.90;;;;;;;8.52;100.00;97907.70;109077;1253;68440;-80
2023/11/08 09:15:52;;;;;;;2.60;1.90;;;;;;;8.57;100.00;97908.89;109086;1253;58175;-81
2023/11/08 09:18:18;;;;;;;2.60;2.00;;;;;;;8.59;100.00;97909.48;109112;1253;59929;-80
2023/11/08 09:20:45;;;;;;;4.50;2.60;;;;;;;8.70;100.00;97913.80;109108;1253;58303;-80
2023/11/08 09:23:11;;;;;;;11.00;8.00;;;;;;;8.80;100.00;97916.19;109103;1253;58909;-81
2023/11/08 09:25:38;;;;;;;8.00;5.20;;;;;;;8.85;100.00;97917.86;109060;1253;58813;-81
2023/11/08 09:28:05;;;;;;;6.60;5.10;;;;;;;8.86;100.00;97916.77;109160;1253;58205;-81
2023/11/08 09:30:33;;;;;;;8.90;5.30;;;;;;;8.84;100.00;97913.81;109067;1253;58864;-81
2023/11/08 09:32:59;;;;;;;12.00;6.90;;;;;;;8.86;100.00;97912.02;109083;1253;73449;-81
2023/11/08 09:35:26;;;;;;;14.20;6.90;;;;;;;8.89;100.00;97912.95;109105;1254;58635;-81
2023/11/08 09:37:55;;;;;;;11.00;7.00;;;;;;;8.90;100.00;97909.77;109102;1253;72475;-81
2023/11/08 09:40:21;;;;;;;8.70;5.00;;;;;;;8.88;100.00;97910.28;108958;1253;58966;-81
2023/11/08 09:42:48;;;;;;;14.50;8.00;;;;;;;8.92;100.00;97909.21;109090;1253;58986;-80
2023/11/08 09:45:15;;;;;;;12.10;9.50;;;;;;;8.99;100.00;97908.77;109127;1253;58239;-81
2023/11/08 09:47:43;;;;;;;17.00;10.40;;;;;;;9.07;100.00;97907.74;109127;1253;70309;-80
2023/11/08 09:50:10;;;;;;;38.00;20.30;;;;;;;9.08;100.00;97910.73;108953;1253;71420;-80
2023/11/08 09:52:37;;;;;;;10.50;7.30;;;;;;;9.10;100.00;97905.67;109107;1252;58947;-81
2023/11/08 09:55:05;;;;;;;10.40;7.20;;;;;;;9.15;100.00;97904.65;109109;1253;58490;-81
2023/11/08 09:57:33;;;;;;;10.80;8.10;;;;;;;9.21;100.00;97904.95;109302;1253;74643;-80
2023/11/08 09:59:59;;;;;;;33.80;20.50;;;;;;;9.29;100.00;97909.10;109107;1253;70813;-81
2023/11/08 10:02:27;;;;;;;9.90;7.30;;;;;;;9.32;100.00;97907.16;109106;1253;58553;-81
2023/11/08 10:04:53;;;;;;;6.10;4.00;;;;;;;9.33;100.00;97905.85;109096;1253;58715;-81
2023/11/08 10:07:19;;;;;;;8.20;4.20;;;;;;;9.35;100.00;97905.73;109109;1253;58774;-81
2023/11/08 10:09:46;;;;;;;7.80;5.10;;;;;;;9.36;100.00;97904.33;109045;1253;58441;-81
2023/11/08 10:12:19;;;;;;;6.80;3.40;;;;;;;9.32;100.00;97902.88;109129;1253;69541;-80
2023/11/08 10:14:46;;;;;;;6.10;4.20;;;;;;;9.32;100.00;97901.64;109083;1253;72454;-81
2023/11/08 10:17:13;;;;;;;8.60;4.30;;;;;;;9.33;100.00;97899.69;108973;1253;58422;-81
2023/11/08 10:19:45;;;;;;;5.20;3.30;;;;;;;9.36;100.00;97895.63;108884;1254;59635;-80
2023/11/08 10:22:17;;;;;;;9.20;5.60;;;;;;;9.41;100.00;97894.90;109095;1253;74813;-81
2023/11/08 10:25:00;;;;;;;11.10;6.20;;;;;;;9.46;100.00;97897.81;109128;1253;70814;-80
2023/11/08 10:27:28;;;;;;;10.00;6.90;;;;;;;9.56;100.00;97893.94;109105;1253;72511;-81
2023/11/08 10:30:18;;;;;;;10.20;5.30;;;;;;;9.55;100.00;97891.01;109168;1253;58491;-80
2023/11/08 10:32:45;;;;;;;6.40;4.90;;;;;;;9.59;100.00;97895.17;109010;1253;59105;-81
2023/11/08 10:35:15;;;;;;;9.10;5.00;;;;;;;9.58;100.00;97890.53;108922;1253;73487;-81
2023/11/08 10:37:42;;;;;;;6.00;4.20;;;;;;;9.63;100.00;97895.38;109099;1253;72026;-81
2023/11/08 10:40:12;;;;;;;7.00;4.10;;;;;;;9.69;100.00;97892.54;109084;1253;70407;-80
2023/11/08 10:42:39;;;;;;;6.40;3.90;;;;;;;9.68;100.00;97894.33;108917;1253;58276;-81
2023/11/08 10:45:10;;;;;;;5.80;3.50;;;;;;;9.73;100.00;97895.71;109120;1253;58644;-81
2023/11/08 10:47:37;;;;;;;4.10;2.40;;;;;;;9.79;100.00;97893.30;109121;1253;74462;-81
2023/11/08 10:50:06;;;;;;;5.60;3.20;;;;;;;9.88;100.00;97892.83;109114;1253;69478;-80
2023/11/08 10:52:37;;;;;;;6.80;4.10;;;;;;;9.97;100.00;97892.99;109084;1253;71500;-81
2023/11/08 10:55:06;;;;;;;4.50;2.80;;;;;;;10.01;100.00;97891.48;109093;1253;59937;-81
2023/11/08 10:57:33;;;;;;;9.30;5.20;;;;;;;9.93;100.00;97885.50;109117;1253;58912;-80
2023/11/08 11:00:01;;;;;;;5.60;3.20;;;;;;;9.90;100.00;97883.07;109126;1253;73640;-80
2023/11/08 11:02:36;;;;;;;7.10;3.60;;;;;;;9.90;100.00;97882.31;109137;1253;69728;-81
2023/11/08 11:05:03;;;;;;;3.80;3.20;;;;;;;9.94;100.00;97882.79;109316;1253;71411;-81
2023/11/08 11:07:30;;;;;;;7.70;3.40;;;;;;;9.90;100.00;97879.98;109178;1253;59194;-81
2023/11/08 11:09:56;;;;;;;4.10;2.70;;;;;;;9.95;100.00;97878.13;109169;1253;58740;-81
2023/11/08 11:12:35;;;;;;;4.80;3.20;;;;;;;10.00;100.00;97874.16;108954;1253;73399;-81